createdAt,value
2022-10-11T00:00:34.071Z,939.87
2022-10-11T00:01:34.336Z,939.93
2022-10-11T00:02:34.097Z,939.89
2022-10-11T00:03:34.117Z,939.90
2022-10-11T00:04:34.127Z,939.88
2022-10-11T00:05:34.142Z,939.95
2022-10-11T00:06:34.158Z,939.99
2022-10-11T00:07:34.171Z,940.06
2022-10-11T00:08:34.184Z,940.09
2022-10-11T00:09:34.198Z,940.11
2022-10-11T00:10:34.215Z,940.11
2022-10-11T00:11:34.228Z,940.09
2022-10-11T00:12:34.242Z,940.08
2022-10-11T00:13:34.260Z,940.06
2022-10-11T00:14:34.273Z,940.11
2022-10-11T00:15:34.286Z,940.10
2022-10-11T00:16:34.305Z,940.13
2022-10-11T00:17:34.332Z,940.10
2022-10-11T00:18:34.331Z,940.15
2022-10-11T00:19:34.343Z,940.15
2022-10-11T00:20:34.357Z,940.09
2022-10-11T00:21:34.371Z,940.08
2022-10-11T00:22:34.386Z,940.10
2022-10-11T00:23:34.399Z,940.13
2022-10-11T00:24:34.413Z,940.13
2022-10-11T00:25:34.428Z,940.14
2022-10-11T00:26:34.449Z,940.16
2022-10-11T00:27:34.455Z,940.14
2022-10-11T00:28:34.539Z,940.17
2022-10-11T00:29:34.487Z,940.19
2022-10-11T00:30:34.499Z,940.16
2022-10-11T00:31:35.848Z,940.13
2022-10-11T00:32:34.546Z,940.09
2022-10-11T00:33:34.561Z,940.08
2022-10-11T00:34:34.558Z,940.05
2022-10-11T00:35:34.572Z,940.05
2022-10-11T00:36:34.588Z,940.07
2022-10-11T00:37:34.599Z,940.02
2022-10-11T00:38:34.617Z,940.01
2022-10-11T00:39:34.631Z,940.03
2022-10-11T00:40:34.644Z,940.04
2022-10-11T00:41:34.660Z,939.97
2022-10-11T00:42:34.674Z,939.94
2022-10-11T00:43:34.688Z,939.90
2022-10-11T00:44:34.701Z,939.88
2022-10-11T00:45:34.719Z,939.90
2022-10-11T00:46:34.731Z,939.88
2022-10-11T00:47:34.746Z,939.87
2022-10-11T00:48:34.759Z,939.87
2022-10-11T00:49:34.797Z,939.84
2022-10-11T00:50:34.786Z,939.88
2022-10-11T00:51:34.807Z,939.84
2022-10-11T00:52:34.817Z,939.89
2022-10-11T00:53:34.833Z,939.88
2022-10-11T00:54:34.843Z,939.87
2022-10-11T00:55:34.859Z,939.85
2022-10-11T00:56:34.871Z,939.83
2022-10-11T00:57:34.888Z,939.80
2022-10-11T00:58:34.904Z,939.71
2022-10-11T00:59:34.919Z,939.65
2022-10-11T01:00:34.935Z,939.58
2022-10-11T01:01:34.993Z,939.52
2022-10-11T01:02:34.958Z,939.48
2022-10-11T01:03:34.972Z,939.48
2022-10-11T01:04:34.989Z,939.41
2022-10-11T01:05:35.022Z,939.41
2022-10-11T01:06:35.016Z,939.38
2022-10-11T01:07:35.030Z,939.40
2022-10-11T01:08:35.045Z,939.42
2022-10-11T01:09:35.060Z,939.44
2022-10-11T01:10:35.075Z,939.46
2022-10-11T01:11:35.088Z,939.41
2022-10-11T01:12:35.103Z,939.44
2022-10-11T01:13:35.116Z,939.45
2022-10-11T01:14:35.131Z,939.48
2022-10-11T01:15:35.146Z,939.46
2022-10-11T01:16:35.158Z,939.49
2022-10-11T01:17:35.174Z,939.50
2022-10-11T01:18:35.188Z,939.50
2022-10-11T01:19:35.207Z,939.52
2022-10-11T01:20:35.219Z,939.44
2022-10-11T01:21:35.251Z,939.44
2022-10-11T01:22:35.247Z,939.44
2022-10-11T01:23:35.258Z,939.46
2022-10-11T01:24:35.274Z,939.46
2022-10-11T01:25:35.289Z,939.48
2022-10-11T01:26:35.303Z,939.52
2022-10-11T01:27:35.317Z,939.49
2022-10-11T01:28:35.404Z,939.47
2022-10-11T01:29:35.345Z,939.45
2022-10-11T01:30:35.359Z,939.49
2022-10-11T01:31:35.374Z,939.49
2022-10-11T01:32:35.390Z,939.48
2022-10-11T01:33:35.403Z,939.47
2022-10-11T01:34:35.417Z,939.45
2022-10-11T01:35:35.432Z,939.44
2022-10-11T01:36:35.447Z,939.40
2022-10-11T01:37:35.479Z,939.41
2022-10-11T01:38:35.474Z,939.41
2022-10-11T01:39:35.489Z,939.38
2022-10-11T01:40:35.503Z,939.39
2022-10-11T01:41:35.518Z,939.35
2022-10-11T01:42:35.533Z,939.33
2022-10-11T01:43:35.566Z,939.36
2022-10-11T01:44:35.559Z,939.30
2022-10-11T01:45:35.572Z,939.28
2022-10-11T01:46:35.588Z,939.26
2022-10-11T01:47:35.602Z,939.29
2022-10-11T01:48:35.616Z,939.26
2022-10-11T01:49:35.634Z,939.25
2022-10-11T01:50:35.654Z,939.25
2022-10-11T01:51:35.661Z,939.24
2022-10-11T01:52:35.676Z,939.23
2022-10-11T01:53:35.707Z,939.22
2022-10-11T01:55:04.050Z,939.18
2022-10-11T01:55:35.715Z,939.18
2022-10-11T01:56:35.731Z,939.21
2022-10-11T01:57:35.744Z,939.18
2022-10-11T01:58:35.760Z,939.19
2022-10-11T01:59:35.774Z,939.20
2022-10-11T02:00:35.805Z,939.27
2022-10-11T02:01:35.852Z,939.29
2022-10-11T02:02:35.817Z,939.32
2022-10-11T02:03:35.829Z,939.32
2022-10-11T02:04:35.846Z,939.36
2022-10-11T02:05:35.861Z,939.35
2022-10-11T02:06:35.878Z,939.31
2022-10-11T02:07:35.886Z,939.24
2022-10-11T02:08:35.904Z,939.23
2022-10-11T02:09:35.937Z,939.21
2022-10-11T02:10:35.932Z,939.18
2022-10-11T02:11:35.944Z,939.19
2022-10-11T02:12:35.960Z,939.13
2022-10-11T02:13:35.973Z,939.13
2022-10-11T02:14:36.014Z,939.10
2022-10-11T02:15:36.001Z,939.06
2022-10-11T02:16:36.017Z,939.08
2022-10-11T02:17:36.030Z,939.07
2022-10-11T02:18:36.047Z,939.08
2022-10-11T02:19:36.059Z,939.09
2022-10-11T02:20:36.077Z,939.06
2022-10-11T02:21:36.087Z,939.03
2022-10-11T02:22:36.102Z,939.05
2022-10-11T02:23:36.116Z,939.09
2022-10-11T02:24:36.231Z,939.09
2022-10-11T02:25:36.163Z,939.15
2022-10-11T02:26:36.161Z,939.13
2022-10-11T02:27:36.173Z,939.10
2022-10-11T02:28:36.251Z,939.13
2022-10-11T02:29:36.203Z,939.17
2022-10-11T02:30:36.218Z,939.11
2022-10-11T02:31:36.235Z,939.05
2022-10-11T02:32:36.246Z,939.03
2022-10-11T02:33:36.259Z,938.99
2022-10-11T02:34:36.274Z,938.98
2022-10-11T02:35:36.287Z,938.96
2022-10-11T02:36:36.303Z,938.98
2022-10-11T02:37:36.314Z,938.96
2022-10-11T02:38:36.332Z,938.92
2022-10-11T02:39:36.345Z,938.86
2022-10-11T02:40:36.358Z,938.86
2022-10-11T02:41:36.391Z,938.90
2022-10-11T02:42:36.388Z,938.89
2022-10-11T02:43:36.449Z,938.95
2022-10-11T02:44:36.416Z,938.96
2022-10-11T02:45:36.431Z,938.95
2022-10-11T02:46:36.443Z,938.89
2022-10-11T02:47:36.458Z,938.85
2022-10-11T02:48:36.473Z,938.83
2022-10-11T02:49:36.489Z,938.80
2022-10-11T02:50:36.501Z,938.78
2022-10-11T02:51:36.516Z,938.74
2022-10-11T02:52:36.529Z,938.72
2022-10-11T02:53:36.543Z,938.69
2022-10-11T02:54:36.558Z,938.66
2022-10-11T02:55:36.573Z,938.63
2022-10-11T02:56:36.584Z,938.59
2022-10-11T02:57:36.622Z,938.59
2022-10-11T02:58:36.615Z,938.55
2022-10-11T02:59:36.628Z,938.53
2022-10-11T03:00:36.650Z,938.49
2022-10-11T03:01:36.753Z,938.47
2022-10-11T03:02:36.671Z,938.42
2022-10-11T03:03:36.685Z,938.43
2022-10-11T03:04:36.699Z,938.42
2022-10-11T03:05:36.714Z,938.42
2022-10-11T03:06:36.728Z,938.40
2022-10-11T03:07:36.741Z,938.44
2022-10-11T03:08:36.758Z,938.39
2022-10-11T03:09:36.771Z,938.36
2022-10-11T03:10:36.786Z,938.34
2022-10-11T03:11:36.799Z,938.35
2022-10-11T03:12:36.814Z,938.29
2022-10-11T03:13:36.847Z,938.29
2022-10-11T03:14:36.842Z,938.23
2022-10-11T03:15:36.865Z,938.21
2022-10-11T03:16:36.869Z,938.14
2022-10-11T03:17:37.546Z,938.15
2022-10-11T03:18:36.899Z,938.11
2022-10-11T03:19:36.915Z,938.06
2022-10-11T03:20:36.927Z,938.05
2022-10-11T03:21:36.942Z,938.03
2022-10-11T03:22:36.956Z,938.04
2022-10-11T03:23:36.977Z,938.12
2022-10-11T03:24:36.986Z,938.14
2022-10-11T03:25:37.000Z,938.16
2022-10-11T03:26:37.037Z,938.15
2022-10-11T03:27:37.025Z,938.16
2022-10-11T03:28:37.099Z,938.17
2022-10-11T03:29:37.073Z,938.23
2022-10-11T03:30:37.071Z,938.21
2022-10-11T03:31:37.083Z,938.19
2022-10-11T03:32:37.198Z,938.19
2022-10-11T03:33:37.114Z,938.21
2022-10-11T03:34:37.126Z,938.17
2022-10-11T03:35:37.141Z,938.13
2022-10-11T03:36:37.154Z,938.08
2022-10-11T03:37:37.169Z,938.09
2022-10-11T03:38:37.185Z,938.10
2022-10-11T03:39:37.198Z,938.10
2022-10-11T03:40:37.212Z,938.11
2022-10-11T03:41:37.224Z,938.12
2022-10-11T03:42:37.241Z,938.11
2022-10-11T03:43:37.254Z,938.09
2022-10-11T03:44:37.269Z,938.11
2022-10-11T03:45:37.303Z,938.07
2022-10-11T03:46:37.297Z,938.06
2022-10-11T03:47:37.309Z,938.05
2022-10-11T03:48:37.324Z,938.05
2022-10-11T03:49:41.360Z,938.03
2022-10-11T03:50:37.353Z,938.05
2022-10-11T03:51:37.367Z,938.07
2022-10-11T03:52:37.386Z,938.02
2022-10-11T03:53:37.396Z,937.98
2022-10-11T03:54:37.409Z,937.97
2022-10-11T03:55:37.423Z,937.94
2022-10-11T03:56:37.438Z,937.96
2022-10-11T03:57:37.453Z,937.91
2022-10-11T03:58:37.466Z,937.92
2022-10-11T03:59:37.484Z,937.91
2022-10-11T04:00:37.494Z,937.86
2022-10-11T04:01:37.631Z,937.86
2022-10-11T04:02:39.328Z,937.87
2022-10-11T04:03:37.537Z,937.86
2022-10-11T04:04:37.550Z,937.82
2022-10-11T04:05:37.566Z,937.83
2022-10-11T04:06:37.579Z,937.81
2022-10-11T04:07:37.593Z,937.83
2022-10-11T04:08:37.606Z,937.85
2022-10-11T04:09:37.622Z,937.77
2022-10-11T04:10:37.637Z,937.75
2022-10-11T04:11:37.648Z,937.67
2022-10-11T04:12:37.664Z,937.68
2022-10-11T04:13:37.679Z,937.74
2022-10-11T04:14:37.699Z,937.74
2022-10-11T04:15:37.707Z,937.68
2022-10-11T04:16:37.720Z,937.73
2022-10-11T04:17:37.754Z,937.71
2022-10-11T04:18:37.752Z,937.72
2022-10-11T04:19:37.770Z,937.71
2022-10-11T04:20:37.776Z,937.71
2022-10-11T04:21:37.792Z,937.71
2022-10-11T04:22:37.806Z,937.63
2022-10-11T04:23:37.826Z,937.66
2022-10-11T04:24:37.837Z,937.57
2022-10-11T04:25:37.848Z,937.60
2022-10-11T04:26:37.862Z,937.57
2022-10-11T04:27:37.878Z,937.58
2022-10-11T04:28:37.960Z,937.58
2022-10-11T04:29:37.906Z,937.62
2022-10-11T04:30:37.921Z,937.63
2022-10-11T04:31:37.931Z,937.62
2022-10-11T04:32:37.949Z,937.64
2022-10-11T04:33:37.982Z,937.61
2022-10-11T04:34:37.977Z,937.61
2022-10-11T04:35:37.992Z,937.58
2022-10-11T04:36:38.004Z,937.57
2022-10-11T04:37:38.017Z,937.53
2022-10-11T04:38:38.031Z,937.51
2022-10-11T04:39:38.045Z,937.48
2022-10-11T04:40:38.160Z,937.44
2022-10-11T04:41:38.077Z,937.45
2022-10-11T04:42:38.089Z,937.50
2022-10-11T04:43:38.104Z,937.45
2022-10-11T04:44:38.118Z,937.48
2022-10-11T04:45:38.130Z,937.46
2022-10-11T04:46:38.144Z,937.50
2022-10-11T04:47:38.159Z,937.50
2022-10-11T04:48:38.173Z,937.52
2022-10-11T04:49:38.207Z,937.53
2022-10-11T04:50:38.203Z,937.53
2022-10-11T04:51:38.215Z,937.49
2022-10-11T04:52:38.231Z,937.48
2022-10-11T04:53:38.243Z,937.47
2022-10-11T04:54:38.260Z,937.43
2022-10-11T04:55:38.272Z,937.47
2022-10-11T04:56:38.287Z,937.45
2022-10-11T04:57:38.298Z,937.47
2022-10-11T04:58:38.414Z,937.44
2022-10-11T04:59:38.329Z,937.45
2022-10-11T05:00:38.340Z,937.44
2022-10-11T05:01:38.399Z,937.45
2022-10-11T05:02:38.369Z,937.46
2022-10-11T05:03:38.383Z,937.49
2022-10-11T05:04:38.396Z,937.52
2022-10-11T05:05:38.428Z,937.55
2022-10-11T05:06:38.426Z,937.61
2022-10-11T05:07:38.441Z,937.65
2022-10-11T05:08:38.455Z,937.63
2022-10-11T05:09:38.470Z,937.62
2022-10-11T05:10:38.481Z,937.54
2022-10-11T05:11:38.498Z,937.53
2022-10-11T05:12:38.511Z,937.52
2022-10-11T05:13:38.524Z,937.47
2022-10-11T05:14:38.539Z,937.48
2022-10-11T05:15:38.553Z,937.45
2022-10-11T05:16:38.567Z,937.42
2022-10-11T05:17:38.580Z,937.39
2022-10-11T05:18:38.594Z,937.41
2022-10-11T05:19:38.608Z,937.40
2022-10-11T05:20:38.623Z,937.38
2022-10-11T05:21:38.659Z,937.41
2022-10-11T05:22:38.651Z,937.39
2022-10-11T05:23:38.666Z,937.35
2022-10-11T05:24:38.678Z,937.29
2022-10-11T05:25:38.693Z,937.32
2022-10-11T05:26:38.709Z,937.27
2022-10-11T05:27:38.721Z,937.21
2022-10-11T05:28:38.824Z,937.19
2022-10-11T05:29:38.749Z,937.17
2022-10-11T05:30:38.765Z,937.22
2022-10-11T05:31:38.780Z,937.28
2022-10-11T05:32:38.792Z,937.30
2022-10-11T05:33:38.813Z,937.31
2022-10-11T05:34:38.823Z,937.31
2022-10-11T05:35:38.833Z,937.31
2022-10-11T05:36:38.849Z,937.28
2022-10-11T05:37:38.881Z,937.30
2022-10-11T05:38:38.881Z,937.28
2022-10-11T05:39:38.893Z,937.24
2022-10-11T05:40:38.906Z,937.20
2022-10-11T05:41:38.918Z,937.15
2022-10-11T05:42:38.934Z,937.15
2022-10-11T05:43:38.947Z,937.18
2022-10-11T05:44:38.960Z,937.15
2022-10-11T05:45:38.979Z,937.12
2022-10-11T05:46:38.988Z,937.10
2022-10-11T05:47:39.003Z,937.07
2022-10-11T05:48:39.017Z,937.07
2022-10-11T05:49:39.033Z,937.06
2022-10-11T05:50:39.046Z,937.07
2022-10-11T05:51:39.058Z,937.10
2022-10-11T05:52:39.074Z,937.06
2022-10-11T05:53:39.147Z,937.09
2022-10-11T05:54:39.708Z,937.04
2022-10-11T05:55:39.118Z,937.06
2022-10-11T05:56:39.130Z,937.09
2022-10-11T05:57:39.143Z,937.05
2022-10-11T05:58:39.158Z,937.10
2022-10-11T05:59:39.170Z,937.05
2022-10-11T06:00:39.186Z,937.09
2022-10-11T06:01:39.281Z,937.13
2022-10-11T06:02:39.216Z,937.08
2022-10-11T06:03:39.228Z,937.07
2022-10-11T06:04:39.242Z,937.03
2022-10-11T06:05:39.256Z,937.01
2022-10-11T06:06:39.272Z,936.97
2022-10-11T06:07:39.283Z,936.96
2022-10-11T06:08:39.297Z,936.90
2022-10-11T06:09:39.330Z,936.88
2022-10-11T06:10:39.326Z,936.88
2022-10-11T06:11:39.341Z,936.88
2022-10-11T06:12:39.354Z,936.90
2022-10-11T06:13:39.367Z,936.94
2022-10-11T06:14:39.382Z,936.92
2022-10-11T06:15:39.397Z,936.90
2022-10-11T06:16:39.409Z,936.86
2022-10-11T06:17:39.425Z,936.84
2022-10-11T06:18:39.439Z,936.85
2022-10-11T06:19:39.454Z,936.81
2022-10-11T06:20:39.466Z,936.87
2022-10-11T06:21:39.480Z,936.85
2022-10-11T06:22:39.494Z,936.89
2022-10-11T06:23:39.511Z,936.88
2022-10-11T06:24:39.523Z,936.84
2022-10-11T06:25:39.556Z,936.87
2022-10-11T06:26:39.549Z,936.86
2022-10-11T06:27:39.566Z,936.87
2022-10-11T06:28:39.686Z,936.91
2022-10-11T06:29:39.591Z,936.86
2022-10-11T06:30:39.606Z,936.88
2022-10-11T06:31:39.619Z,936.90
2022-10-11T06:32:39.636Z,936.90
2022-10-11T06:33:39.652Z,936.86
2022-10-11T06:34:39.664Z,936.85
2022-10-11T06:35:39.677Z,936.83
2022-10-11T06:36:39.692Z,936.80
2022-10-11T06:37:39.747Z,936.82
2022-10-11T06:38:44.504Z,936.84
2022-10-11T06:39:39.731Z,936.83
2022-10-11T06:40:39.745Z,936.80
2022-10-11T06:41:39.781Z,936.77
2022-10-11T06:42:39.775Z,936.75
2022-10-11T06:43:39.791Z,936.77
2022-10-11T06:44:39.801Z,936.78
2022-10-11T06:45:39.816Z,936.78
2022-10-11T06:46:39.831Z,936.74
2022-10-11T06:47:39.845Z,936.76
2022-10-11T06:48:39.858Z,936.74
2022-10-11T06:49:39.880Z,936.75
2022-10-11T06:50:58.652Z,936.70
2022-10-11T06:51:39.902Z,936.67
2022-10-11T06:52:39.916Z,936.68
2022-10-11T06:53:39.933Z,936.70
2022-10-11T06:54:44.605Z,936.64
2022-10-11T06:55:39.958Z,936.64
2022-10-11T06:56:39.971Z,936.58
2022-10-11T06:57:40.005Z,936.60
2022-10-11T06:58:39.999Z,936.63
2022-10-11T06:59:40.015Z,936.62
2022-10-11T07:00:40.064Z,936.67
2022-10-11T07:01:40.167Z,936.65
2022-10-11T07:02:40.054Z,936.63
2022-10-11T07:03:40.069Z,936.65
2022-10-11T07:04:40.083Z,936.63
2022-10-11T07:05:40.097Z,936.60
2022-10-11T07:06:40.113Z,936.60
2022-10-11T07:07:40.123Z,936.55
2022-10-11T07:08:40.138Z,936.54
2022-10-11T07:09:40.157Z,936.59
2022-10-11T07:10:40.179Z,936.56
2022-10-11T07:11:40.185Z,936.51
2022-10-11T07:12:40.194Z,936.49
2022-10-11T07:13:40.262Z,936.50
2022-10-11T07:14:40.229Z,936.49
2022-10-11T07:15:40.238Z,936.52
2022-10-11T07:16:40.253Z,936.50
2022-10-11T07:17:40.267Z,936.52
2022-10-11T07:18:40.279Z,936.57
2022-10-11T07:19:40.292Z,936.60
2022-10-11T07:20:40.321Z,936.60
2022-10-11T07:21:40.322Z,936.64
2022-10-11T07:22:40.336Z,936.61
2022-10-11T07:23:40.348Z,936.60
2022-10-11T07:24:40.362Z,936.61
2022-10-11T07:25:40.378Z,936.61
2022-10-11T07:26:40.394Z,936.67
2022-10-11T07:27:40.406Z,936.67
2022-10-11T07:28:40.467Z,936.71
2022-10-11T07:29:40.456Z,936.75
2022-10-11T07:30:40.447Z,936.77
2022-10-11T07:31:40.461Z,936.79
2022-10-11T07:32:40.480Z,936.74
2022-10-11T07:33:40.491Z,936.68
2022-10-11T07:34:40.505Z,936.69
2022-10-11T07:35:42.860Z,936.66
2022-10-11T07:36:40.535Z,936.62
2022-10-11T07:37:40.545Z,936.62
2022-10-11T07:38:40.559Z,936.58
2022-10-11T07:39:40.572Z,936.58
2022-10-11T07:40:40.590Z,936.54
2022-10-11T07:41:45.424Z,936.47
2022-10-11T07:42:40.615Z,936.49
2022-10-11T07:43:40.647Z,936.48
2022-10-11T07:44:40.643Z,936.47
2022-10-11T07:45:40.678Z,936.48
2022-10-11T07:46:40.672Z,936.54
2022-10-11T07:47:40.689Z,936.56
2022-10-11T07:48:40.719Z,936.59
2022-10-11T07:49:40.716Z,936.68
2022-10-11T07:50:40.730Z,936.73
2022-10-11T07:51:40.741Z,936.74
2022-10-11T07:52:40.755Z,936.78
2022-10-11T07:53:40.770Z,936.75
2022-10-11T07:54:40.786Z,936.73
2022-10-11T07:55:40.796Z,936.77
2022-10-11T07:56:40.811Z,936.71
2022-10-11T07:57:40.825Z,936.71
2022-10-11T07:58:40.866Z,936.79
2022-10-11T07:59:40.860Z,936.79
2022-10-11T08:00:40.895Z,936.78
2022-10-11T08:01:40.947Z,936.81
2022-10-11T08:02:40.896Z,936.80
2022-10-11T08:03:40.909Z,936.81
2022-10-11T08:04:40.924Z,936.83
2022-10-11T08:05:40.939Z,936.80
2022-10-11T08:06:40.956Z,936.80
2022-10-11T08:07:40.969Z,936.81
2022-10-11T08:08:40.980Z,936.81
2022-10-11T08:09:40.993Z,936.82
2022-10-11T08:10:41.009Z,936.84
2022-10-11T08:11:41.024Z,936.89
2022-10-11T08:12:41.036Z,936.89
2022-10-11T08:13:41.050Z,936.96
2022-10-11T08:14:41.065Z,936.99
2022-10-11T08:15:41.079Z,936.97
2022-10-11T08:16:41.093Z,936.98
2022-10-11T08:17:41.125Z,936.99
2022-10-11T08:18:41.149Z,937.00
2022-10-11T08:19:41.133Z,937.04
2022-10-11T08:20:41.147Z,937.02
2022-10-11T08:21:41.172Z,937.05
2022-10-11T08:22:41.175Z,937.05
2022-10-11T08:23:41.189Z,937.07
2022-10-11T08:24:41.204Z,937.05
2022-10-11T08:25:41.219Z,937.07
2022-10-11T08:26:41.534Z,937.08
2022-10-11T08:27:41.247Z,937.08
2022-10-11T08:28:41.319Z,937.08
2022-10-11T08:29:41.283Z,937.12
2022-10-11T08:30:41.290Z,937.16
2022-10-11T08:31:41.301Z,937.14
2022-10-11T08:32:41.315Z,937.18
2022-10-11T08:33:41.348Z,937.19
2022-10-11T08:34:41.345Z,937.20
2022-10-11T08:35:41.358Z,937.19
2022-10-11T08:36:41.374Z,937.19
2022-10-11T08:37:41.384Z,937.17
2022-10-11T08:38:41.400Z,937.18
2022-10-11T08:39:41.411Z,937.20
2022-10-11T08:40:41.439Z,937.21
2022-10-11T08:41:41.441Z,937.19
2022-10-11T08:42:41.455Z,937.20
2022-10-11T08:43:41.468Z,937.15
2022-10-11T08:45:05.898Z,937.20
2022-10-11T08:45:41.496Z,937.16
2022-10-11T08:46:41.514Z,937.21
2022-10-11T08:47:41.524Z,937.19
2022-10-11T08:48:41.540Z,937.25
2022-10-11T08:49:41.574Z,937.27
2022-10-11T08:50:41.566Z,937.33
2022-10-11T08:51:41.582Z,937.38
2022-10-11T08:52:41.595Z,937.39
2022-10-11T08:53:41.608Z,937.43
2022-10-11T08:54:41.624Z,937.37
2022-10-11T08:55:41.636Z,937.33
2022-10-11T08:56:41.654Z,937.36
2022-10-11T08:57:41.667Z,937.33
2022-10-11T08:58:41.682Z,937.31
2022-10-11T08:59:41.693Z,937.32
2022-10-11T09:00:41.716Z,937.34
2022-10-11T09:01:41.753Z,937.38
2022-10-11T09:03:03.386Z,937.40
2022-10-11T09:03:41.754Z,937.43
2022-10-11T09:04:41.762Z,937.50
2022-10-11T09:05:41.797Z,937.54
2022-10-11T09:06:41.792Z,937.55
2022-10-11T09:07:41.804Z,937.57
2022-10-11T09:08:41.820Z,937.55
2022-10-11T09:09:41.834Z,937.53
2022-10-11T09:10:41.855Z,937.52
2022-10-11T09:11:41.866Z,937.49
2022-10-11T09:12:41.874Z,937.48
2022-10-11T09:13:41.892Z,937.50
2022-10-11T09:14:41.903Z,937.49
2022-10-11T09:15:41.918Z,937.54
2022-10-11T09:16:41.931Z,937.53
2022-10-11T09:17:41.944Z,937.52
2022-10-11T09:18:41.960Z,937.55
2022-10-11T09:19:41.974Z,937.52
2022-10-11T09:20:41.987Z,937.50
2022-10-11T09:21:42.021Z,937.49
2022-10-11T09:22:42.017Z,937.50
2022-10-11T09:23:42.032Z,937.46
2022-10-11T09:24:42.044Z,937.46
2022-10-11T09:25:42.060Z,937.43
2022-10-11T09:26:42.072Z,937.44
2022-10-11T09:28:01.872Z,937.48
2022-10-11T09:28:42.152Z,937.46
2022-10-11T09:29:42.112Z,937.45
2022-10-11T09:30:42.130Z,937.41
2022-10-11T09:31:42.142Z,937.48
2022-10-11T09:32:42.161Z,937.48
2022-10-11T09:33:42.168Z,937.54
2022-10-11T09:34:42.186Z,937.56
2022-10-11T09:35:42.198Z,937.54
2022-10-11T09:36:42.211Z,937.54
2022-10-11T09:37:42.243Z,937.49
2022-10-11T09:38:42.238Z,937.54
2022-10-11T09:39:42.251Z,937.57
2022-10-11T09:40:42.267Z,937.58
2022-10-11T09:41:42.282Z,937.61
2022-10-11T09:42:42.294Z,937.67
2022-10-11T09:43:42.310Z,937.72
2022-10-11T09:44:42.323Z,937.71
2022-10-11T09:45:46.919Z,937.75
2022-10-11T09:46:42.354Z,937.74
2022-10-11T09:47:42.372Z,937.79
2022-10-11T09:48:42.378Z,937.75
2022-10-11T09:49:42.393Z,937.77
2022-10-11T09:50:42.407Z,937.78
2022-10-11T09:51:42.421Z,937.78
2022-10-11T09:52:42.437Z,937.76
2022-10-11T09:53:42.468Z,937.76
2022-10-11T09:54:42.468Z,937.71
2022-10-11T09:55:42.477Z,937.68
2022-10-11T09:56:42.492Z,937.68
2022-10-11T09:57:42.504Z,937.71
2022-10-11T09:58:42.519Z,937.65
2022-10-11T09:59:42.536Z,937.70
2022-10-11T10:00:42.555Z,937.70
2022-10-11T10:01:42.610Z,937.71
2022-10-11T10:02:42.577Z,937.70
2022-10-11T10:03:42.590Z,937.71
2022-10-11T10:04:42.604Z,937.71
2022-10-11T10:05:42.618Z,937.71
2022-10-11T10:06:42.630Z,937.74
2022-10-11T10:07:42.646Z,937.70
2022-10-11T10:08:42.660Z,937.70
2022-10-11T10:09:42.691Z,937.72
2022-10-11T10:10:42.687Z,937.70
2022-10-11T10:11:42.701Z,937.67
2022-10-11T10:12:42.717Z,937.67
2022-10-11T10:13:42.728Z,937.65
2022-10-11T10:14:42.746Z,937.62
2022-10-11T10:15:42.759Z,937.59
2022-10-11T10:16:42.770Z,937.56
2022-10-11T10:17:42.786Z,937.62
2022-10-11T10:18:42.799Z,937.63
2022-10-11T10:19:45.252Z,937.69
2022-10-11T10:20:42.828Z,937.71
2022-10-11T10:21:42.840Z,937.66
2022-10-11T10:22:42.857Z,937.67
2022-10-11T10:23:42.868Z,937.70
2022-10-11T10:24:42.884Z,937.73
2022-10-11T10:25:43.764Z,937.72
2022-10-11T10:26:42.913Z,937.74
2022-10-11T10:27:42.925Z,937.72
2022-10-11T10:28:43.017Z,937.74
2022-10-11T10:29:42.954Z,937.74
2022-10-11T10:30:42.969Z,937.76
2022-10-11T10:32:09.134Z,937.79
2022-10-11T10:32:48.188Z,937.81
2022-10-11T10:33:43.008Z,937.81
2022-10-11T10:34:43.023Z,937.83
2022-10-11T10:35:43.037Z,937.87
2022-10-11T10:36:43.051Z,937.92
2022-10-11T10:37:43.064Z,937.98
2022-10-11T10:38:43.081Z,937.97
2022-10-11T10:39:43.096Z,938.00
2022-10-11T10:40:43.112Z,938.03
2022-10-11T10:41:43.142Z,938.08
2022-10-11T10:42:43.135Z,938.11
2022-10-11T10:43:43.150Z,938.13
2022-10-11T10:44:43.162Z,938.12
2022-10-11T10:45:43.178Z,938.13
2022-10-11T10:46:43.192Z,938.11
2022-10-11T10:47:43.206Z,938.12
2022-10-11T10:49:19.155Z,938.12
2022-10-11T10:49:58.579Z,938.09
2022-10-11T10:50:43.248Z,938.06
2022-10-11T10:51:43.261Z,938.07
2022-10-11T10:52:43.277Z,938.09
2022-10-11T10:53:43.292Z,938.10
2022-10-11T10:54:43.307Z,938.10
2022-10-11T10:55:43.327Z,938.08
2022-10-11T10:56:43.340Z,938.11
2022-10-11T10:57:43.363Z,938.11
2022-10-11T10:58:43.360Z,938.14
2022-10-11T10:59:43.376Z,938.13
2022-10-11T11:00:43.390Z,938.17
2022-10-11T11:01:43.479Z,938.15
2022-10-11T11:02:43.469Z,938.13
2022-10-11T11:03:43.429Z,938.15
2022-10-11T11:04:43.445Z,938.10
2022-10-11T11:05:43.458Z,938.08
2022-10-11T11:06:43.481Z,938.07
2022-10-11T11:07:43.485Z,938.11
2022-10-11T11:08:43.500Z,938.09
2022-10-11T11:09:43.515Z,938.10
2022-10-11T11:10:43.529Z,938.12
2022-10-11T11:11:43.555Z,938.15
2022-10-11T11:12:43.556Z,938.16
2022-10-11T11:13:43.589Z,938.17
2022-10-11T11:14:43.586Z,938.15
2022-10-11T11:15:43.599Z,938.19
2022-10-11T11:16:43.638Z,938.25
2022-10-11T11:17:43.627Z,938.18
2022-10-11T11:18:43.639Z,938.22
2022-10-11T11:19:43.654Z,938.21
2022-10-11T11:20:43.669Z,938.14
2022-10-11T11:21:43.683Z,938.17
2022-10-11T11:22:43.697Z,938.20
2022-10-11T11:23:43.713Z,938.27
2022-10-11T11:24:43.728Z,938.29
2022-10-11T11:25:45.056Z,938.28
2022-10-11T11:26:44.564Z,938.28
2022-10-11T11:27:43.766Z,938.27
2022-10-11T11:28:43.933Z,938.27
2022-10-11T11:29:43.813Z,938.28
2022-10-11T11:30:43.814Z,938.24
2022-10-11T11:31:43.822Z,938.27
2022-10-11T11:32:45.849Z,938.28
2022-10-11T11:33:48.539Z,938.27
2022-10-11T11:34:43.867Z,938.27
2022-10-11T11:35:43.879Z,938.27
2022-10-11T11:36:43.943Z,938.29
2022-10-11T11:37:43.908Z,938.26
2022-10-11T11:38:43.923Z,938.30
2022-10-11T11:39:43.934Z,938.29
2022-10-11T11:40:43.955Z,938.28
2022-10-11T11:41:43.965Z,938.27
2022-10-11T11:42:43.979Z,938.28
2022-10-11T11:43:43.993Z,938.29
2022-10-11T11:44:44.006Z,938.25
2022-10-11T11:45:44.037Z,938.26
2022-10-11T11:46:44.035Z,938.25
2022-10-11T11:47:44.048Z,938.21
2022-10-11T11:48:44.063Z,938.22
2022-10-11T11:50:44.092Z,938.21
2022-10-11T11:51:44.105Z,938.16
2022-10-11T11:52:44.130Z,938.11
2022-10-11T11:53:44.160Z,938.19
2022-10-11T11:54:44.151Z,938.19
2022-10-11T11:55:44.161Z,938.24
2022-10-11T11:56:44.174Z,938.24
2022-10-11T11:57:44.190Z,938.25
2022-10-11T11:58:44.205Z,938.29
2022-10-11T11:59:44.217Z,938.32
2022-10-11T12:00:44.232Z,938.26
2022-10-11T12:01:44.301Z,938.35
2022-10-11T12:02:44.259Z,938.30
2022-10-11T12:03:44.277Z,938.36
2022-10-11T12:04:44.289Z,938.34
2022-10-11T12:05:44.303Z,938.38
2022-10-11T12:07:11.032Z,938.33
2022-10-11T12:07:44.337Z,938.36
2022-10-11T12:08:44.347Z,938.34
2022-10-11T12:09:44.364Z,938.32
2022-10-11T12:10:44.372Z,938.30
2022-10-11T12:11:50.655Z,938.27
2022-10-11T12:12:44.403Z,938.21
2022-10-11T12:13:44.416Z,938.13
2022-10-11T12:14:44.431Z,938.14
2022-10-11T12:15:44.446Z,938.09
2022-10-11T12:16:44.460Z,938.08
2022-10-11T12:17:44.500Z,938.13
2022-10-11T12:18:44.488Z,938.16
2022-10-11T12:19:44.502Z,938.17
2022-10-11T12:20:44.517Z,938.29
2022-10-11T12:21:44.529Z,938.29
2022-10-11T12:22:44.543Z,938.29
2022-10-11T12:23:44.561Z,938.34
2022-10-11T12:24:44.571Z,938.35
2022-10-11T12:25:44.588Z,938.34
2022-10-11T12:26:44.600Z,938.31
2022-10-11T12:27:44.612Z,938.28
2022-10-11T12:28:44.686Z,938.31
2022-10-11T12:29:44.641Z,938.31